createdAt,value
2023-02-22T00:00:44.342Z,95786.81
2023-02-22T00:05:47.429Z,95787.22
2023-02-22T00:10:55.335Z,95791.50
2023-02-22T00:15:58.616Z,95782.13
2023-02-22T00:21:01.425Z,95776.66
2023-02-22T00:26:03.009Z,95779.38
2023-02-22T00:31:09.447Z,95768.84
2023-02-22T00:36:12.710Z,95776.66
2023-02-22T00:41:14.722Z,95776.25
2023-02-22T00:46:16.767Z,95762.63
2023-02-22T00:51:18.833Z,95756.00
2023-02-22T00:56:20.870Z,95762.25
2023-02-22T01:01:24.104Z,95753.69
2023-02-22T01:06:25.901Z,95756.41
2023-02-22T01:11:27.768Z,95752.91
2023-02-22T01:16:29.419Z,95750.59
2023-02-22T01:21:31.132Z,95746.69
2023-02-22T01:26:32.678Z,95729.94
2023-02-22T01:31:34.269Z,95735.81
2023-02-22T01:36:35.888Z,95735.41
2023-02-22T01:41:38.983Z,95737.34
2023-02-22T01:46:40.631Z,95731.13
2023-02-22T01:51:47.612Z,95728.75
2023-02-22T01:57:15.610Z,95728.78
2023-02-22T02:02:18.930Z,95716.69
2023-02-22T02:07:22.690Z,95715.91
2023-02-22T02:12:31.356Z,95714.75
2023-02-22T02:17:34.467Z,95714.75
2023-02-22T02:22:42.756Z,95705.41
2023-02-22T02:28:03.760Z,95704.22
2023-02-22T02:33:18.610Z,95705.41
2023-02-22T02:38:32.187Z,95699.53
2023-02-22T02:43:42.866Z,95691.75
2023-02-22T02:48:54.757Z,95686.69
2023-02-22T02:53:59.599Z,95676.94
2023-02-22T02:59:01.160Z,95680.44
2023-02-22T03:04:16.658Z,95674.59
2023-02-22T03:09:40.312Z,95669.91
2023-02-22T03:14:44.857Z,95662.50
2023-02-22T03:20:22.275Z,95663.25
2023-02-22T03:25:48.440Z,95660.53
2023-02-22T03:30:56.862Z,95657.41
2023-02-22T03:36:00.728Z,95657.00
2023-02-22T03:41:06.562Z,95647.63
2023-02-22T03:46:10.387Z,95658.13
2023-02-22T03:51:17.371Z,95660.06
2023-02-22T03:56:28.900Z,95657.75
2023-02-22T04:01:30.567Z,95654.19
2023-02-22T04:06:32.305Z,95653.03
2023-02-22T04:11:35.895Z,95656.94
2023-02-22T04:16:37.417Z,95653.81
2023-02-22T04:21:42.689Z,95656.13
2023-02-22T04:26:50.949Z,95662.31
2023-02-22T04:31:53.736Z,95663.47
2023-02-22T04:36:55.492Z,95664.22
2023-02-22T04:41:57.323Z,95656.03
2023-02-22T04:46:59.391Z,95649.38
2023-02-22T04:52:01.291Z,95649.75
2023-02-22T04:57:10.407Z,95639.25
2023-02-22T05:02:12.304Z,95648.97
2023-02-22T05:07:13.790Z,95647.41
2023-02-22T05:12:15.425Z,95652.84
2023-02-22T05:17:16.961Z,95646.97
2023-02-22T05:22:18.527Z,95647.69
2023-02-22T05:27:20.333Z,95639.44
2023-02-22T05:32:21.848Z,95640.56
2023-02-22T05:37:23.426Z,95629.25
2023-02-22T05:42:25.392Z,95627.31
2023-02-22T05:47:27.108Z,95630.00
2023-02-22T05:52:28.682Z,95633.84
2023-02-22T05:57:30.759Z,95631.47
2023-02-22T06:02:33.046Z,95635.34
2023-02-22T06:07:34.563Z,95637.25
2023-02-22T06:12:36.180Z,95625.59
2023-02-22T06:17:39.513Z,95631.00
2023-02-22T06:22:41.286Z,95632.16
2023-02-22T06:27:42.923Z,95632.94
2023-02-22T06:32:47.211Z,95646.94
2023-02-22T06:37:48.833Z,95643.81
2023-02-22T06:42:50.306Z,95657.41
2023-02-22T06:47:51.885Z,95651.53
2023-02-22T06:52:53.567Z,95642.97
2023-02-22T06:57:55.229Z,95655.75
2023-02-22T07:02:57.592Z,95657.28
2023-02-22T07:08:05.374Z,95654.19
2023-02-22T07:13:10.298Z,95656.91
2023-02-22T07:18:16.035Z,95657.69
2023-02-22T07:23:18.276Z,95663.19
2023-02-22T07:28:19.891Z,95654.69
2023-02-22T07:33:21.457Z,95660.53
2023-02-22T07:38:23.038Z,95657.47
2023-02-22T07:43:26.727Z,95649.75
2023-02-22T07:48:30.248Z,95648.63
2023-02-22T07:53:33.630Z,95651.75
2023-02-22T07:58:35.447Z,95647.91
2023-02-22T08:03:38.094Z,95648.31
2023-02-22T08:08:40.517Z,95649.56
2023-02-22T08:13:42.017Z,95644.94
2023-02-22T08:18:43.564Z,95645.34
2023-02-22T08:23:45.171Z,95642.66
2023-02-22T08:28:46.759Z,95632.59
2023-02-22T08:33:51.661Z,95631.50
2023-02-22T08:38:53.201Z,95636.97
2023-02-22T08:43:54.725Z,95635.09
2023-02-22T08:48:56.254Z,95638.25
2023-02-22T08:53:57.841Z,95632.06
2023-02-22T08:58:59.484Z,95631.69
2023-02-22T09:04:02.152Z,95634.47
2023-02-22T09:09:03.734Z,95640.31
2023-02-22T09:14:05.268Z,95630.97
2023-02-22T09:19:06.805Z,95636.81
2023-02-22T09:24:08.790Z,95628.66
2023-02-22T09:29:10.509Z,95637.63
2023-02-22T09:34:15.697Z,95631.00
2023-02-22T09:39:19.365Z,95625.91
2023-02-22T09:44:29.897Z,95618.91
2023-02-22T09:49:39.038Z,95611.84
2023-02-22T09:55:04.757Z,95615.34
2023-02-22T10:00:13.619Z,95601.63
2023-02-22T10:05:33.684Z,95592.19
2023-02-22T10:10:41.049Z,95592.50
2023-02-22T10:15:47.602Z,95588.16
2023-02-22T10:20:57.623Z,95595.91
2023-02-22T10:26:13.642Z,95586.47
2023-02-22T10:31:25.102Z,95579.72
2023-02-22T10:36:27.732Z,95568.69
2023-02-22T10:41:31.873Z,95564.66
2023-02-22T10:46:34.558Z,95568.47
2023-02-22T10:51:36.475Z,95560.13
2023-02-22T10:56:48.126Z,95552.19
2023-02-22T11:01:50.015Z,95546.19
2023-02-22T11:07:00.770Z,95549.59
2023-02-22T11:12:11.635Z,95542.44
2023-02-22T11:17:18.978Z,95537.63
2023-02-22T11:22:24.811Z,95527.22
2023-02-22T11:27:38.152Z,95521.16
2023-02-22T11:32:56.518Z,95512.69
2023-02-22T11:38:36.738Z,95510.88
2023-02-22T11:43:38.251Z,95500.81
2023-02-22T11:48:44.878Z,95490.41
2023-02-22T11:54:01.160Z,95484.69
2023-02-22T11:59:21.183Z,95484.41
2023-02-22T12:04:33.417Z,95479.50
2023-02-22T12:09:42.906Z,95480.06
2023-02-22T12:14:58.549Z,95473.19
2023-02-22T12:20:25.038Z,95465.47
2023-02-22T12:25:31.372Z,95457.00
2023-02-22T12:30:41.146Z,95448.47
2023-02-22T12:35:50.476Z,95458.00
2023-02-22T12:41:18.737Z,95457.84
2023-02-22T12:46:23.330Z,95455.13
2023-02-22T12:52:12.433Z,95460.97
2023-02-22T12:57:39.131Z,95452.63
2023-02-22T13:02:47.715Z,95451.78
2023-02-22T13:08:05.588Z,95445.06
2023-02-22T13:13:35.964Z,95439.06
2023-02-22T13:19:15.026Z,95438.47
2023-02-22T13:24:28.280Z,95435.91
2023-02-22T13:29:36.088Z,95432.53
2023-02-22T13:34:49.746Z,95439.00
2023-02-22T13:40:21.234Z,95422.69
2023-02-22T13:46:07.790Z,95421.63
2023-02-22T13:51:32.800Z,95426.28
2023-02-22T13:56:34.650Z,95424.97
2023-02-22T14:01:48.529Z,95420.16
2023-02-22T14:06:51.202Z,95410.16
2023-02-22T14:11:54.208Z,95410.75
2023-02-22T14:17:25.224Z,95403.41
2023-02-22T14:22:30.216Z,95402.44
2023-02-22T14:27:41.417Z,95407.66
2023-02-22T14:32:42.987Z,95397.03
2023-02-22T14:37:51.444Z,95384.47
2023-02-22T14:43:01.116Z,95396.84
2023-02-22T14:48:39.337Z,95384.75
2023-02-22T14:53:45.993Z,95385.31
2023-02-22T14:59:18.447Z,95392.03
2023-02-22T15:04:30.878Z,95384.66
2023-02-22T15:09:37.496Z,95384.56
2023-02-22T15:14:41.353Z,95379.81
2023-02-22T15:19:43.123Z,95375.81
2023-02-22T15:24:58.684Z,95375.94
2023-02-22T15:30:04.597Z,95380.13
2023-02-22T15:35:20.178Z,95374.84
2023-02-22T15:40:21.859Z,95368.84
2023-02-22T15:45:28.100Z,95369.53
2023-02-22T15:50:30.818Z,95367.06
2023-02-22T15:55:39.832Z,95371.31
2023-02-22T16:00:49.959Z,95370.06
2023-02-22T16:05:55.638Z,95377.88
2023-02-22T16:11:05.594Z,95376.63
2023-02-22T16:16:22.344Z,95378.13
2023-02-22T16:21:23.864Z,95380.41
2023-02-22T16:26:33.828Z,95375.59
2023-02-22T16:31:40.039Z,95383.00
2023-02-22T16:36:47.667Z,95381.09
2023-02-22T16:41:50.929Z,95381.03
2023-02-22T16:46:53.852Z,95390.75
2023-02-22T16:51:59.766Z,95387.06
2023-02-22T16:57:04.038Z,95383.00
2023-02-22T17:02:07.629Z,95386.06
2023-02-22T17:07:09.991Z,95378.63
2023-02-22T17:12:11.592Z,95385.25
2023-02-22T17:17:15.992Z,95383.91
2023-02-22T17:22:20.254Z,95382.59
2023-02-22T17:27:21.859Z,95381.25
2023-02-22T17:32:23.460Z,95376.66
2023-02-22T17:37:25.569Z,95376.38
2023-02-22T17:42:27.094Z,95387.13
2023-02-22T17:47:31.057Z,95388.53
2023-02-22T17:52:32.971Z,95386.69
2023-02-22T17:57:35.219Z,95376.19
2023-02-22T18:02:36.763Z,95384.16
2023-02-22T18:07:38.402Z,95386.16
2023-02-22T18:12:40.838Z,95380.31
2023-02-22T18:17:42.554Z,95383.13
2023-02-22T18:22:44.664Z,95385.50
2023-02-22T18:27:46.146Z,95377.00
2023-02-22T18:32:47.826Z,95373.56
2023-02-22T18:37:49.417Z,95377.56
2023-02-22T18:42:51.004Z,95370.63
2023-02-22T18:47:52.569Z,95376.22
2023-02-22T18:52:55.359Z,95364.97
2023-02-22T18:57:59.363Z,95366.22
2023-02-22T19:03:01.252Z,95367.03
2023-02-22T19:08:04.126Z,95367.53
2023-02-22T19:13:10.674Z,95358.19
2023-02-22T19:18:12.992Z,95362.59
2023-02-22T19:23:16.870Z,95368.16
2023-02-22T19:28:18.699Z,95361.53
2023-02-22T19:33:20.918Z,95367.81
2023-02-22T19:38:22.481Z,95368.66
2023-02-22T19:43:24.118Z,95378.06
2023-02-22T19:48:25.666Z,95383.97
2023-02-22T19:53:27.161Z,95376.97
2023-02-22T19:58:28.745Z,95378.19
2023-02-22T20:03:34.936Z,95382.59
2023-02-22T20:08:42.095Z,95386.56
2023-02-22T20:13:43.868Z,95383.47
2023-02-22T20:18:47.172Z,95389.38
2023-02-22T20:23:49.116Z,95391.38
2023-02-22T20:28:51.748Z,95397.28
2023-02-22T20:33:55.940Z,95390.22
2023-02-22T20:38:59.572Z,95393.72
2023-02-22T20:44:02.802Z,95392.97
2023-02-22T20:49:07.441Z,95385.56
2023-02-22T20:54:12.016Z,95387.53
2023-02-22T20:59:16.194Z,95387.94
2023-02-22T21:04:20.273Z,95388.75
2023-02-22T21:09:22.144Z,95388.44
2023-02-22T21:14:25.055Z,95384.97
2023-02-22T21:19:26.729Z,95380.72
2023-02-22T21:24:29.022Z,95381.53
2023-02-22T21:29:34.360Z,95385.06
2023-02-22T21:34:36.606Z,95381.59
2023-02-22T21:39:38.245Z,95378.47
2023-02-22T21:44:40.125Z,95378.13
2023-02-22T21:49:41.759Z,95381.25
2023-02-22T21:54:43.400Z,95377.00
2023-02-22T21:59:44.924Z,95381.66
2023-02-22T22:04:46.508Z,95377.38
2023-02-22T22:09:56.474Z,95382.84
2023-02-22T22:14:58.657Z,95381.72
2023-02-22T22:20:00.228Z,95369.63
2023-02-22T22:25:03.386Z,95372.75
2023-02-22T22:30:05.508Z,95378.28
2023-02-22T22:35:14.519Z,95371.66
2023-02-22T22:40:16.225Z,95373.31
2023-02-22T22:45:18.103Z,95376.47
2023-02-22T22:50:19.920Z,95383.19
2023-02-22T22:55:24.228Z,95368.75
2023-02-22T23:00:27.460Z,95385.16
2023-02-22T23:05:29.344Z,95374.22
2023-02-22T23:10:33.117Z,95384.00
2023-02-22T23:15:34.747Z,95377.38
2023-02-22T23:20:38.929Z,95374.31
2023-02-22T23:25:43.838Z,95394.28
2023-02-22T23:30:45.377Z,95384.94
2023-02-22T23:35:49.901Z,95387.34
2023-02-22T23:40:53.984Z,95392.09
2023-02-22T23:45:57.218Z,95390.63
2023-02-22T23:51:01.726Z,95400.41
2023-02-22T23:56:09.851Z,95393.41
